Date,TemperatureHighF,TemperatureAvgF,TemperatureLowF,DewpointHighF,DewpointAvgF,DewpointLowF,HumidityHigh,HumidityAvg,HumidityLow,PressureMaxIn,PressureMinIn,WindSpeedMaxMPH,WindSpeedAvgMPH,GustSpeedMaxMPH,PrecipitationSumIn
2013-7-1,67.0,54.6,49.0,55.0,50.1,43.0,95,86,44,30.18,30.05,2,0,5,0.00
2013-7-2,72.0,60.8,48.0,52.0,46.9,41.0,94,64,36,30.18,30.10,9,2,13,0.00
2013-7-3,77.0,66.2,54.0,60.0,53.8,48.0,85,65,49,30.13,30.04,7,1,11,0.00
2013-7-4,78.0,68.4,60.0,65.0,61.0,58.0,97,78,60,30.10,30.02,8,2,12,0.00
2013-7-5,85.0,71.7,61.0,67.0,60.4,56.0,88,70,42,30.08,30.01,8,2,10,0.00
2013-7-6,86.0,73.0,61.0,66.0,60.7,56.0,87,67,43,30.06,29.98,7,2,11,0.00
2013-7-7,85.0,72.2,62.0,68.0,63.7,58.0,96,77,48,30.00,29.93,10,2,13,0.03
2013-7-8,76.0,68.4,66.0,71.0,65.3,-99.9,96,93,81,30.01,29.93,4,1,8,0.50
2013-7-9,80.0,70.9,66.0,72.0,67.5,65.0,96,89,72,30.00,29.78,4,1,8,0.09
2013-7-10,71.0,66.3,58.0,69.0,58.4,-99.9,96,80,62,29.96,29.71,10,3,18,1.12
2013-7-11,73.0,62.6,53.0,60.0,55.1,51.0,97,79,53,30.11,29.96,10,3,15,0.93
2013-7-12,81.0,64.1,51.0,61.0,54.7,49.0,96,75,38,30.19,30.10,7,2,11,0.00
2013-7-13,83.0,71.9,59.0,65.0,59.6,55.0,91,67,49,30.22,30.12,9,2,12,0.00
2013-7-14,85.0,72.3,57.0,68.0,62.6,55.0,96,74,50,30.27,30.21,11,2,14,0.00
2013-7-15,88.0,73.3,62.0,70.0,64.8,60.0,96,77,49,30.32,30.26,7,1,10,0.00
2013-7-16,91.0,77.6,65.0,74.0,68.9,63.0,96,77,53,30.29,30.21,6,2,10,0.00
2013-7-17,91.0,82.4,73.0,74.0,71.1,68.0,91,70,49,30.25,30.14,7,3,11,0.00
2013-7-18,84.0,76.3,71.0,74.0,71.2,68.0,94,85,66,30.15,29.83,8,2,10,0.00
2013-7-19,84.0,78.4,67.0,74.0,69.3,60.0,91,74,63,29.83,29.67,16,4,20,0.31
2013-7-20,69.0,63.8,55.0,60.0,51.8,-99.9,95,68,47,30.01,29.76,13,4,17,0.22
2013-7-21,74.0,60.3,44.0,59.0,52.2,42.0,94,76,47,30.06,29.95,9,2,10,0.00
2013-7-22,86.0,70.3,59.0,66.0,60.8,55.0,91,74,51,29.96,29.68,8,2,13,0.00
2013-7-23,77.0,64.0,57.0,66.0,55.4,45.0,91,74,62,29.94,29.65,17,6,25,0.22
2013-7-24,69.0,59.5,44.0,53.0,48.0,42.0,95,68,47,30.07,29.94,7,2,12,0.01
2013-7-25,78.0,62.7,48.0,57.0,51.6,46.0,95,71,40,30.08,30.00,8,2,12,0.00
2013-7-26,74.0,60.8,57.0,64.0,57.0,53.0,100,88,64,30.01,29.36,10,2,14,0.11
2013-7-27,61.0,58.0,56.0,61.0,55.9,49.0,100,93,78,29.84,29.33,8,3,14,0.80
2013-7-28,64.0,57.3,53.0,55.0,52.6,49.0,97,85,64,29.91,29.76,10,2,15,0.06
2013-7-29,68.0,58.2,54.0,57.0,54.5,53.0,98,88,67,30.19,29.90,5,2,12,0.06
2013-7-30,74.0,60.9,50.0,61.0,55.4,49.0,97,83,55,30.24,30.12,4,1,7,0.02
2013-7-31,76.0,65.5,57.0,64.0,59.7,56.0,96,82,63,30.12,29.91,13,2,22,0.04